Jacksonville, IL

3:05 PM CDT on August 25, 2016 (GMT -0500)
Book Lane | | Change Station

Elev 663 ft 39.73 °N, 90.26 °W | Updated 28 seconds ago

Mostly Cloudy
Mostly Cloudy
84.4 °F
Feels Like 91 °F
N
4.9
Wind Variable Wind from SW
Gusts 7.4 mph

Today
High -- | Low -- °F
--% Chance of Precip.
Yesterday
High -- | Low -- °F
Precip. -- in
Pressure 30.05 in
Visibility 10.0 miles
Clouds Scattered Clouds 3500 ft
Mostly Cloudy 4100 ft
Mostly Cloudy 4700 ft
Heat Index 91 °F
Dew Point 73 °F
Humidity 68%
Rainfall 0.00 in
Snow Depth Not available.
6:23 AM 7:42 PM
Last Quarter, 42% visible
METAR KIJX 251955Z AUTO 26004KT 10SM SCT035 BKN041 BKN047 29/22 A3005 RMK AO2 T02880217
Pressure 30.05 in
Visibility 10.0 miles
Clouds Scattered Clouds 3500 ft
Mostly Cloudy 4100 ft
Mostly Cloudy 4700 ft
Heat Index 91 °F
Dew Point 73 °F
Humidity 68%
Rainfall 0.00 in
Snow Depth Not available.
6:23 AM 7:42 PM
Last Quarter, 42% visible
METAR KIJX 251955Z AUTO 26004KT 10SM SCT035 BKN041 BKN047 29/22 A3005 RMK AO2 T02880217
A tropical disturbance pushing toward the Bahamas, is expected to develop into a tropical depression or storm, and will likely target Florida and the Gulf Coast this weekend into next week.

Right now, the disturbance remains a broad area of low pressure pushing through the Dominican Republic and Haiti, headed toward the southeast Bahamas. Rainfall totals over 3 inches (with locally higher amounts) are expected in HispaƱiola, particularly over elevated terrain.

10-Day Weather Forecast

Almanac

Astronomy

Aug. 25, 2016 Rise Set
Actual Time
Civil Twilight
Nautical Twilight
Astronomical Twilight
Moon
Length of Visible Light
Length of Day
Tomorrow will be .
, % of the Moon is Illuminated

Today's Extremes

State Highs State Lows

Community

WunderPhotos

Upload Photos

1,934,921 photos uploaded!

WunderBlog® & News

Nearby

Air Quality

  Air Quality AQ Index Pollutant
Not available.

Snow Depth

Station Depth Elevation

Earthquake Activity

City Distance Mag. Time & Date
Minimum magnitude displayed is 2.5.

Coastal Water Temperatures

Place Temperature

Stations

Nearby Weather Stations

Station Location Temp. Windchill Dew Point Humidity Wind Precip. Elev Updated Type
                   

Watches & Warnings

There are currently no watches in effect.